createdAt,value
2023-04-10T00:01:08.116Z,5.78
2023-04-10T00:03:34.911Z,5.72
2023-04-10T00:06:02.008Z,5.64
2023-04-10T00:08:28.679Z,5.63
2023-04-10T00:10:56.177Z,5.56
2023-04-10T00:13:23.117Z,5.52
2023-04-10T00:15:50.806Z,5.41
2023-04-10T00:18:17.523Z,5.38
2023-04-10T00:20:44.279Z,5.39
2023-04-10T00:23:11.085Z,5.32
2023-04-10T00:25:37.714Z,5.37
2023-04-10T00:28:04.446Z,5.31
2023-04-10T00:30:31.155Z,5.39
2023-04-10T00:32:57.859Z,5.34
2023-04-10T00:35:24.581Z,5.22
2023-04-10T00:37:51.332Z,5.10
2023-04-10T00:40:17.924Z,5.02
2023-04-10T00:42:44.593Z,5.02
2023-04-10T00:45:11.667Z,4.90
2023-04-10T00:47:38.553Z,4.75
2023-04-10T00:50:06.563Z,4.76
2023-04-10T00:52:33.475Z,4.72
2023-04-10T00:55:00.185Z,4.76
2023-04-10T00:57:27.234Z,4.79
2023-04-10T00:59:54.103Z,4.88
2023-04-10T01:02:21.050Z,4.84
2023-04-10T01:04:48.299Z,4.88
2023-04-10T01:07:53.675Z,4.87
2023-04-10T01:10:43.645Z,4.98
2023-04-10T01:13:28.009Z,5.01
2023-04-10T01:16:08.132Z,5.02
2023-04-10T01:18:54.368Z,5.25
2023-04-10T01:21:22.655Z,5.30
2023-04-10T01:24:27.251Z,5.25
2023-04-10T01:27:16.897Z,5.07
2023-04-10T01:29:48.018Z,5.38
2023-04-10T01:32:20.624Z,5.23
2023-04-10T01:34:51.123Z,5.25
2023-04-10T01:37:25.531Z,5.28
2023-04-10T01:40:03.192Z,5.29
2023-04-10T01:42:32.961Z,4.84
2023-04-10T01:45:01.937Z,4.76
2023-04-10T01:47:29.153Z,4.57
2023-04-10T01:49:57.703Z,4.75
2023-04-10T01:52:25.478Z,4.82
2023-04-10T01:54:53.739Z,4.82
2023-04-10T01:57:21.415Z,4.87
2023-04-10T01:59:48.164Z,5.03
2023-04-10T02:02:15.199Z,4.85
2023-04-10T02:04:42.018Z,4.82
2023-04-10T02:07:34.828Z,4.77
2023-04-10T02:10:15.665Z,5.21
2023-04-10T02:12:53.791Z,5.14
2023-04-10T02:15:22.826Z,5.04
2023-04-10T02:17:51.349Z,4.93
2023-04-10T02:20:21.443Z,4.98
2023-04-10T02:22:49.111Z,5.01
2023-04-10T02:25:16.556Z,5.07
2023-04-10T02:27:43.393Z,5.24
2023-04-10T02:30:10.739Z,5.17
2023-04-10T02:32:37.794Z,5.26
2023-04-10T02:35:04.724Z,5.27
2023-04-10T02:37:32.889Z,5.16
2023-04-10T02:39:59.641Z,5.03
2023-04-10T02:42:26.335Z,5.10
2023-04-10T02:44:52.987Z,5.18
2023-04-10T02:47:19.820Z,4.89
2023-04-10T02:49:46.605Z,4.88
2023-04-10T02:52:13.539Z,4.82
2023-04-10T02:54:40.734Z,4.77
2023-04-10T02:57:07.587Z,4.88
2023-04-10T02:59:34.392Z,4.75
2023-04-10T03:02:01.197Z,4.85
2023-04-10T03:04:29.098Z,4.87
2023-04-10T03:06:56.229Z,4.80
2023-04-10T03:09:22.865Z,4.52
2023-04-10T03:11:49.498Z,4.91
2023-04-10T03:14:17.041Z,4.97
2023-04-10T03:16:44.246Z,5.09
2023-04-10T03:19:12.779Z,5.02
2023-04-10T03:21:39.607Z,4.99
2023-04-10T03:24:07.172Z,5.00
2023-04-10T03:26:33.844Z,5.01
2023-04-10T03:29:00.781Z,4.94
2023-04-10T03:31:27.797Z,4.71
2023-04-10T03:33:54.674Z,4.54
2023-04-10T03:36:21.624Z,4.60
2023-04-10T03:38:48.299Z,4.69
2023-04-10T03:41:15.018Z,4.88
2023-04-10T03:43:41.774Z,4.75
2023-04-10T03:46:08.482Z,4.74
2023-04-10T03:48:35.151Z,4.72
2023-04-10T03:51:02.564Z,4.80
2023-04-10T03:53:29.503Z,4.88
2023-04-10T03:55:56.441Z,4.74
2023-04-10T03:58:23.121Z,4.81
2023-04-10T04:00:49.852Z,4.99
2023-04-10T04:03:16.694Z,5.14
2023-04-10T04:05:43.500Z,5.23
2023-04-10T04:08:10.267Z,5.15
2023-04-10T04:10:36.876Z,5.22
2023-04-10T04:13:03.645Z,5.17
2023-04-10T04:15:30.448Z,5.18
2023-04-10T04:17:57.785Z,5.27
2023-04-10T04:20:24.466Z,5.42
2023-04-10T04:22:51.438Z,5.37
2023-04-10T04:25:19.771Z,5.60
2023-04-10T04:27:46.439Z,5.73
2023-04-10T04:30:13.130Z,5.91
2023-04-10T04:32:39.899Z,6.02
2023-04-10T04:35:07.337Z,6.18
2023-04-10T04:37:34.046Z,6.34
2023-04-10T04:40:01.555Z,6.47
2023-04-10T04:42:28.261Z,6.59
2023-04-10T04:44:55.032Z,6.43
2023-04-10T04:47:22.414Z,6.17
2023-04-10T04:49:49.157Z,5.97
2023-04-10T04:52:15.842Z,5.95
2023-04-10T04:54:42.488Z,5.86
2023-04-10T04:57:09.769Z,5.95
2023-04-10T04:59:38.306Z,6.04
2023-04-10T05:02:05.091Z,6.39
2023-04-10T05:04:32.065Z,6.63
2023-04-10T05:06:58.700Z,6.43
2023-04-10T05:09:25.523Z,6.56
2023-04-10T05:11:54.228Z,6.58
2023-04-10T05:14:21.891Z,6.56
2023-04-10T05:16:48.526Z,6.57
2023-04-10T05:19:15.592Z,6.64
2023-04-10T05:21:42.326Z,6.79
2023-04-10T05:24:09.485Z,6.97
2023-04-10T05:26:36.264Z,7.11
2023-04-10T05:29:02.886Z,7.32
2023-04-10T05:31:29.673Z,7.48
2023-04-10T05:33:56.398Z,7.59
2023-04-10T05:36:23.082Z,7.73
2023-04-10T05:38:49.718Z,7.47
2023-04-10T05:41:16.422Z,7.34
2023-04-10T05:43:43.175Z,7.49
2023-04-10T05:46:11.358Z,7.83
2023-04-10T05:48:39.492Z,7.71
2023-04-10T05:51:06.569Z,7.82
2023-04-10T05:53:33.252Z,7.80
2023-04-10T05:56:00.157Z,7.87
2023-04-10T05:58:27.318Z,7.78
2023-04-10T06:00:54.364Z,7.94
2023-04-10T06:03:21.683Z,8.06
2023-04-10T06:05:48.414Z,8.34
2023-04-10T06:08:15.135Z,8.46
2023-04-10T06:10:41.855Z,8.88
2023-04-10T06:13:11.048Z,8.94
2023-04-10T06:15:38.143Z,9.10
2023-04-10T06:18:05.238Z,9.04
2023-04-10T06:20:31.913Z,8.88
2023-04-10T06:22:59.444Z,8.94
2023-04-10T06:25:26.702Z,9.02
2023-04-10T06:27:53.501Z,9.11
2023-04-10T06:30:20.937Z,9.17
2023-04-10T07:28:11.260Z,11.10
2023-04-10T07:30:37.896Z,11.17
2023-04-10T07:33:10.783Z,11.07
2023-04-10T07:35:37.517Z,10.95
2023-04-10T07:38:04.626Z,11.07
2023-04-10T07:40:31.198Z,11.11
2023-04-10T07:42:57.784Z,11.13
2023-04-10T07:45:24.528Z,11.11
2023-04-10T07:47:53.742Z,11.26
2023-04-10T07:50:20.395Z,11.22
2023-04-10T07:52:47.048Z,11.09
2023-04-10T07:55:23.259Z,11.06
2023-04-10T07:57:52.293Z,11.00
2023-04-10T08:00:19.182Z,11.03
2023-04-10T08:02:45.894Z,11.14
2023-04-10T08:05:12.644Z,11.25
2023-04-10T08:07:39.316Z,11.40
2023-04-10T08:10:06.478Z,11.46
2023-04-10T08:12:36.567Z,11.63
2023-04-10T08:15:03.290Z,11.53
2023-04-10T08:17:29.940Z,11.39
2023-04-10T08:19:56.672Z,11.43
2023-04-10T08:22:23.423Z,11.39
2023-04-10T08:24:50.054Z,11.47
2023-04-10T08:27:17.028Z,11.44
2023-04-10T08:29:43.742Z,11.43
2023-04-10T08:32:10.379Z,11.57
2023-04-10T08:34:37.064Z,11.87
2023-04-10T08:37:10.585Z,11.83
2023-04-10T08:39:39.117Z,11.71
2023-04-10T08:42:07.333Z,11.70
2023-04-10T08:44:35.919Z,11.85
2023-04-10T08:47:03.163Z,11.86
2023-04-10T08:49:54.126Z,12.13
2023-04-10T08:52:31.606Z,11.86
2023-04-10T08:55:00.295Z,12.09
2023-04-10T08:57:28.044Z,11.95
2023-04-10T08:59:55.686Z,11.83
2023-04-10T09:02:22.822Z,12.02
2023-04-10T09:04:51.976Z,11.94
2023-04-10T09:07:19.026Z,11.90
2023-04-10T09:09:45.640Z,12.06
2023-04-10T09:12:16.667Z,12.02
2023-04-10T09:14:43.535Z,12.42
2023-04-10T09:17:16.638Z,12.41
2023-04-10T09:19:48.467Z,12.53
2023-04-10T09:22:16.545Z,12.66
2023-04-10T09:24:45.489Z,12.56
2023-04-10T09:27:28.400Z,12.50
2023-04-10T09:29:55.081Z,12.35
2023-04-10T09:32:44.351Z,12.36
2023-04-10T09:35:13.148Z,12.34
2023-04-10T09:37:42.365Z,12.48
2023-04-10T09:40:24.590Z,12.81
2023-04-10T09:42:51.911Z,12.63
2023-04-10T09:45:22.844Z,12.93
2023-04-10T09:48:03.346Z,12.79
2023-04-10T09:50:39.889Z,12.85
2023-04-10T09:56:06.908Z,12.68
2023-04-10T09:58:34.965Z,12.48
2023-04-10T10:01:01.714Z,12.58
2023-04-10T10:03:28.706Z,12.54
2023-04-10T10:05:55.499Z,12.61
2023-04-10T10:08:22.440Z,12.66
2023-04-10T10:10:54.789Z,12.46
2023-04-10T10:13:30.451Z,12.73
2023-04-10T10:16:16.522Z,12.64
2023-04-10T10:18:55.850Z,12.70
2023-04-10T10:21:24.748Z,12.83
2023-04-10T10:23:54.245Z,12.73
2023-04-10T10:26:23.318Z,12.66
2023-04-10T10:28:53.120Z,12.70
2023-04-10T10:31:22.525Z,13.03
2023-04-10T10:33:52.782Z,12.83
2023-04-10T10:36:20.509Z,12.74
2023-04-10T10:39:13.413Z,12.82
2023-04-10T10:42:17.422Z,12.58
2023-04-10T10:44:52.833Z,12.61
2023-04-10T10:47:32.571Z,12.73
2023-04-10T10:50:01.639Z,13.08
2023-04-10T10:52:49.254Z,12.99
2023-04-10T10:55:24.869Z,13.00
2023-04-10T10:57:53.080Z,12.98
2023-04-10T11:00:20.983Z,13.05
2023-04-10T11:03:11.095Z,13.11
2023-04-10T11:05:55.938Z,13.19
2023-04-10T11:08:46.688Z,13.12
2023-04-10T11:11:27.571Z,13.09
2023-04-10T11:14:12.862Z,13.24
2023-04-10T11:16:41.553Z,13.40
2023-04-10T11:19:15.849Z,13.25
2023-04-10T11:22:01.604Z,13.29
2023-04-10T11:24:30.614Z,13.39
2023-04-10T11:26:57.692Z,13.13
2023-04-10T11:29:27.276Z,13.10
2023-04-10T11:31:58.282Z,13.26
2023-04-10T11:34:27.540Z,13.62
2023-04-10T11:36:54.859Z,13.57
2023-04-10T11:39:21.664Z,13.23
2023-04-10T11:41:50.447Z,13.39
2023-04-10T11:47:23.043Z,12.91
2023-04-10T11:49:55.872Z,12.86
2023-04-10T11:52:25.844Z,12.53
2023-04-10T11:54:52.578Z,12.46
2023-04-10T11:57:19.122Z,12.39
2023-04-10T11:59:50.714Z,12.52
2023-04-10T12:02:17.565Z,12.58
2023-04-10T12:04:44.763Z,12.53
2023-04-10T12:07:11.957Z,12.86
2023-04-10T12:09:38.940Z,12.90
2023-04-10T12:12:07.645Z,12.76
2023-04-10T12:14:39.809Z,12.78
2023-04-10T12:17:09.323Z,12.78
2023-04-10T12:19:36.804Z,12.79
2023-04-10T12:22:03.652Z,12.81
2023-04-10T12:24:49.696Z,12.61
2023-04-10T12:27:28.262Z,12.56
2023-04-10T12:29:57.652Z,12.56
2023-04-10T12:32:25.748Z,12.46
2023-04-10T12:34:58.420Z,12.40
2023-04-10T12:37:45.703Z,12.23
2023-04-10T12:40:13.181Z,12.20
2023-04-10T12:42:43.109Z,12.19
2023-04-10T12:45:13.602Z,12.10
2023-04-10T12:47:53.946Z,12.00
2023-04-10T12:50:24.342Z,11.77
2023-04-10T12:53:11.818Z,11.65
2023-04-10T12:55:38.809Z,11.73
2023-04-10T12:58:20.651Z,11.77
2023-04-10T13:00:48.537Z,11.78
2023-04-10T13:03:15.646Z,11.70
2023-04-10T13:05:44.588Z,11.69
2023-04-10T13:08:11.206Z,11.67
2023-04-10T13:10:38.409Z,11.62
2023-04-10T13:13:06.964Z,11.65
2023-04-10T13:15:37.515Z,11.50
2023-04-10T13:18:05.956Z,11.44
2023-04-10T13:20:34.360Z,11.37
2023-04-10T13:23:02.823Z,11.25
2023-04-10T13:25:34.456Z,11.08
2023-04-10T13:28:01.844Z,11.04
2023-04-10T13:30:29.148Z,10.98
2023-04-10T13:32:55.847Z,10.98
2023-04-10T13:35:22.651Z,11.16
2023-04-10T13:37:53.080Z,11.24
2023-04-10T13:40:21.385Z,11.22
2023-04-10T13:42:48.783Z,11.07
2023-04-10T13:45:15.777Z,11.06
2023-04-10T13:47:44.030Z,11.07
2023-04-10T13:50:11.063Z,10.99
2023-04-10T13:52:39.146Z,11.03
2023-04-10T13:55:06.888Z,10.89
2023-04-10T13:57:34.325Z,10.80
2023-04-10T14:00:01.482Z,10.78
2023-04-10T14:02:28.306Z,10.81
2023-04-10T14:04:54.961Z,10.76
2023-04-10T14:07:21.647Z,10.59
2023-04-10T14:09:48.707Z,10.49
2023-04-10T14:12:19.294Z,10.39
2023-04-10T14:14:46.338Z,10.42
2023-04-10T14:17:13.027Z,10.43
2023-04-10T14:19:39.889Z,10.39
2023-04-10T14:22:06.569Z,10.43
2023-04-10T14:24:33.988Z,10.54
2023-04-10T14:27:01.986Z,10.51
2023-04-10T14:29:37.449Z,10.40
2023-04-10T14:32:07.606Z,10.32
2023-04-10T14:34:34.418Z,10.17
2023-04-10T14:37:01.123Z,10.12
2023-04-10T14:39:27.738Z,10.07
2023-04-10T14:41:54.348Z,9.91
2023-04-10T14:44:21.077Z,9.77
2023-04-10T14:46:47.733Z,9.79
2023-04-10T14:49:15.205Z,9.62
2023-04-10T14:51:46.032Z,9.67
2023-04-10T14:54:12.762Z,9.60
2023-04-10T14:56:39.624Z,9.58
2023-04-10T14:59:07.258Z,9.63
2023-04-10T15:01:35.723Z,9.61
2023-04-10T15:04:02.922Z,9.67
2023-04-10T15:06:31.109Z,9.64
2023-04-10T15:08:57.970Z,9.49
2023-04-10T15:11:24.715Z,9.56
2023-04-10T15:13:51.422Z,9.51
2023-04-10T15:16:18.358Z,9.37
2023-04-10T15:18:49.386Z,9.24
2023-04-10T15:21:17.210Z,9.12
2023-04-10T15:23:46.700Z,9.18
2023-04-10T15:26:17.643Z,8.95
2023-04-10T15:28:44.507Z,8.95
2023-04-10T15:31:17.585Z,8.89
2023-04-10T15:33:44.357Z,8.95
2023-04-10T15:36:11.252Z,8.87
2023-04-10T15:38:38.308Z,8.89
2023-04-10T15:41:10.289Z,8.89
2023-04-10T15:43:38.075Z,8.85
2023-04-10T15:46:05.983Z,8.93
2023-04-10T15:48:35.402Z,8.78
2023-04-10T15:51:06.226Z,8.71
2023-04-10T15:53:34.199Z,8.81
2023-04-10T15:56:00.931Z,8.79
2023-04-10T15:58:27.635Z,8.82
2023-04-10T16:00:54.365Z,8.74
2023-04-10T16:03:21.284Z,8.83
2023-04-10T16:05:48.328Z,8.85
2023-04-10T16:08:15.116Z,8.83
2023-04-10T16:10:42.796Z,9.08
2023-04-10T16:13:09.602Z,9.06
2023-04-10T16:15:38.114Z,9.06
2023-04-10T16:18:05.985Z,9.09
2023-04-10T16:20:34.184Z,9.09
2023-04-10T16:23:02.732Z,9.13
2023-04-10T16:25:30.736Z,9.09
2023-04-10T16:27:57.509Z,9.25
2023-04-10T16:30:26.961Z,9.28
2023-04-10T16:32:53.863Z,9.14
2023-04-10T16:35:20.936Z,9.25
2023-04-10T16:37:48.145Z,9.12
2023-04-10T16:40:15.006Z,9.06
2023-04-10T16:42:42.981Z,9.04
2023-04-10T16:45:11.099Z,9.10
2023-04-10T16:47:38.932Z,8.96
2023-04-10T16:50:06.918Z,9.00
2023-04-10T16:52:34.646Z,9.06
2023-04-10T16:55:01.537Z,8.95
2023-04-10T16:57:28.378Z,8.85
2023-04-10T16:59:59.117Z,8.95
2023-04-10T17:02:27.084Z,8.80
2023-04-10T17:04:57.212Z,8.77
2023-04-10T17:07:24.295Z,8.89
2023-04-10T17:09:52.008Z,8.85
2023-04-10T17:12:18.828Z,8.80
2023-04-10T17:14:45.925Z,8.75
2023-04-10T17:17:13.070Z,8.72
2023-04-10T17:19:40.084Z,8.76
2023-04-10T17:22:16.863Z,8.80
2023-04-10T17:24:44.594Z,8.77
2023-04-10T17:27:12.623Z,8.70
2023-04-10T17:29:39.992Z,8.64
2023-04-10T17:32:08.799Z,8.63
2023-04-10T17:34:35.752Z,8.61
2023-04-10T17:37:02.673Z,8.63
2023-04-10T17:39:29.433Z,8.66
2023-04-10T17:41:58.315Z,8.61
2023-04-10T17:44:25.064Z,8.63
2023-04-10T17:46:53.697Z,8.61
2023-04-10T17:49:21.945Z,8.48
2023-04-10T17:51:49.691Z,8.47
2023-04-10T17:54:16.763Z,8.39
2023-04-10T17:56:43.531Z,8.43
2023-04-10T17:59:10.877Z,8.48
2023-04-10T18:01:37.923Z,8.42
2023-04-10T18:04:04.809Z,8.42
2023-04-10T18:06:31.995Z,8.33
2023-04-10T18:08:58.866Z,8.28
2023-04-10T18:11:25.716Z,8.28
2023-04-10T18:13:52.528Z,8.25
2023-04-10T18:16:19.336Z,8.21
2023-04-10T18:18:46.324Z,8.16
2023-04-10T18:21:13.909Z,8.20
2023-04-10T18:23:40.932Z,8.18
2023-04-10T18:26:09.452Z,8.18
2023-04-10T18:28:37.876Z,8.16
2023-04-10T18:31:04.919Z,8.08
2023-04-10T18:33:31.763Z,8.12
2023-04-10T18:35:59.216Z,8.18
2023-04-10T18:38:26.542Z,8.17
2023-04-10T18:40:59.614Z,8.18
2023-04-10T18:43:29.696Z,8.12
2023-04-10T18:45:57.266Z,8.13
2023-04-10T18:48:24.076Z,8.09
2023-04-10T18:50:53.247Z,8.09
2023-04-10T18:53:21.013Z,8.12
2023-04-10T18:55:54.790Z,8.04
2023-04-10T18:58:22.223Z,8.11
2023-04-10T19:00:49.647Z,8.09
2023-04-10T19:03:16.563Z,8.13
2023-04-10T19:05:43.709Z,7.99
2023-04-10T19:08:14.369Z,8.07
2023-04-10T19:10:42.686Z,8.14
2023-04-10T19:13:11.804Z,8.15
2023-04-10T19:15:43.484Z,7.73
2023-04-10T19:18:10.835Z,8.11
2023-04-10T19:20:50.519Z,8.09
2023-04-10T19:23:20.010Z,8.14
2023-04-10T19:25:47.104Z,8.02
2023-04-10T19:28:13.988Z,8.00
2023-04-10T19:30:40.736Z,8.16
2023-04-10T19:33:07.427Z,8.12
2023-04-10T19:35:34.217Z,8.32
2023-04-10T19:38:00.975Z,8.28
2023-04-10T19:40:27.610Z,8.34
2023-04-10T19:42:54.291Z,8.40
2023-04-10T19:45:22.295Z,8.35
2023-04-10T19:47:50.815Z,8.33
2023-04-10T19:50:17.451Z,8.43
2023-04-10T19:52:44.176Z,8.52
2023-04-10T19:55:11.019Z,8.50
2023-04-10T19:57:37.628Z,8.44
2023-04-10T20:00:04.682Z,8.27
2023-04-10T20:02:31.498Z,8.25
2023-04-10T20:04:58.428Z,8.14
2023-04-10T20:07:25.295Z,8.15
2023-04-10T20:09:51.996Z,8.27
2023-04-10T20:12:18.643Z,8.23
2023-04-10T20:14:45.361Z,8.30
2023-04-10T20:17:12.315Z,8.23
2023-04-10T20:19:39.059Z,8.21
2023-04-10T20:22:07.508Z,8.28
2023-04-10T20:24:34.101Z,8.23
2023-04-10T20:27:01.628Z,8.27
2023-04-10T20:29:28.383Z,8.25
2023-04-10T20:31:55.138Z,8.25
2023-04-10T20:34:21.808Z,8.24
2023-04-10T20:36:48.541Z,8.21
2023-04-10T20:39:16.633Z,8.25
2023-04-10T20:41:43.289Z,8.49
2023-04-10T20:44:09.951Z,8.48
2023-04-10T20:46:36.974Z,8.52
2023-04-10T20:49:03.768Z,8.52
2023-04-10T20:51:30.445Z,8.55
2023-04-10T20:53:57.110Z,8.54
2023-04-10T20:56:30.048Z,8.37
2023-04-10T20:59:07.142Z,8.48
2023-04-10T21:01:34.726Z,8.33
2023-04-10T21:04:01.977Z,8.36
2023-04-10T21:06:29.015Z,8.32
2023-04-10T21:08:56.008Z,8.29
2023-04-10T21:11:22.770Z,8.42
2023-04-10T21:13:49.579Z,8.38
2023-04-10T21:16:16.259Z,8.37
2023-04-10T21:18:42.932Z,8.34
2023-04-10T21:21:09.772Z,8.24
2023-04-10T21:23:36.924Z,8.22
2023-04-10T21:26:03.600Z,8.14
2023-04-10T21:28:30.350Z,8.17
2023-04-10T21:30:57.027Z,8.30
2023-04-10T21:33:23.729Z,8.28
2023-04-10T21:35:50.496Z,8.37
2023-04-10T21:38:17.166Z,8.30
2023-04-10T21:40:51.203Z,8.29
2023-04-10T21:43:17.938Z,8.24
2023-04-10T21:45:44.620Z,8.34
2023-04-10T21:48:11.365Z,8.44
2023-04-10T21:50:38.091Z,8.44
2023-04-10T21:53:04.840Z,8.55
2023-04-10T21:55:31.579Z,8.73
2023-04-10T21:57:58.218Z,8.65
2023-04-10T22:00:25.008Z,8.61
2023-04-10T22:02:52.027Z,8.53
2023-04-10T22:05:19.110Z,8.52
2023-04-10T22:07:45.781Z,8.44
2023-04-10T22:10:12.524Z,8.19
2023-04-10T22:12:39.287Z,8.19
2023-04-10T22:15:07.924Z,8.20
2023-04-10T22:17:34.885Z,8.20
2023-04-10T22:20:01.752Z,8.26
2023-04-10T22:22:28.413Z,8.23
2023-04-10T22:24:55.272Z,8.43
2023-04-10T22:27:23.832Z,8.52
2023-04-10T22:30:02.224Z,8.51
2023-04-10T22:32:30.542Z,8.57
2023-04-10T22:34:59.574Z,8.67
2023-04-10T22:37:26.999Z,8.76
2023-04-10T22:39:56.307Z,8.85
2023-04-10T22:42:23.350Z,8.67
2023-04-10T22:44:49.961Z,8.88
2023-04-10T22:47:16.581Z,8.87
2023-04-10T22:49:43.184Z,8.87
2023-04-10T22:52:09.790Z,8.87
2023-04-10T22:54:36.495Z,8.88
2023-04-10T22:57:03.162Z,8.82
2023-04-10T22:59:30.085Z,8.86
2023-04-10T23:01:56.747Z,8.91
2023-04-10T23:04:23.680Z,8.93
2023-04-10T23:06:50.394Z,9.10
2023-04-10T23:09:17.103Z,9.14
2023-04-10T23:11:43.831Z,9.06
2023-04-10T23:14:11.122Z,9.03
2023-04-10T23:16:38.014Z,9.09
2023-04-10T23:19:05.120Z,9.19
2023-04-10T23:21:31.963Z,9.18
2023-04-10T23:23:58.615Z,9.03
2023-04-10T23:26:25.315Z,9.11
2023-04-10T23:28:52.082Z,9.39
2023-04-10T23:31:18.874Z,9.25
2023-04-10T23:33:45.903Z,9.36
2023-04-10T23:36:12.531Z,9.42
2023-04-10T23:38:39.335Z,9.37
2023-04-10T23:41:07.126Z,9.42
2023-04-10T23:43:34.115Z,9.38
2023-04-10T23:46:00.960Z,9.38
2023-04-10T23:48:27.650Z,9.31
2023-04-10T23:51:06.176Z,9.11
2023-04-10T23:53:33.183Z,9.28
2023-04-10T23:56:00.000Z,9.26
2023-04-10T23:58:26.798Z,9.29
